3J7

Greene County Regional Airport

Greensboro, Georgia, USA
METAR K3J7 170510Z AUTO 00000KT 10SM SCT060 21/20 A3010 RMK AO2
Observed Flight Rules
Oct-17 @ 05:10 UTC (36 minutes ago) Visual Flight Rules
Visibility Clouds
10 miles
  • Scattered at 6,000' AGL
Temperatures Readings
Current 21°C / 70°F
Dewpoint 20°C / 68°F
Humidity 94%
Altimeter 30.1" Hg
Pressure 1019 hPa
Elevation 206
METAR K3J7 170510Z AUTO 00000KT 10SM SCT060 21/20 A3010 RMK AO2
Observed Flight Rules
Oct-17 @ 05:10 UTC
(36 minutes ago)
VFR
Clouds
  • Scattered at 6,000' AGL
Temperature Dewpoint
21°C / 70°F 20°C / 68°F
Humidity Altimeter Pressure
94% 30.1" Hg 1019 hPa